Terminal Aerodrome Forecast
Issued by NWS Northern Indiana

Home | Current Version | Previous Version | Text Only | Print | Product List | Glossary Off
Versions: 1 2 3 4 5 6 7 8 9 10 11 12 13

000
FTUS43 KIWX 280526
TAFFWA
TAF
KFWA 280526Z 2806/2906 08005KT P6SM SCT250
     FM281600 10007KT P6SM FEW045
     FM290100 09004KT P6SM SCT250=

USA.gov is the U.S. government's official web portal to all federal, state and local government web resources and services.